Time;durP1;ratioP1;P1;durP2;ratioP2;P2;SDS_P1;SDS_P2;PMS_P1;PMS_P2;Temp;Humidity;BMP_temperature;BMP_pressure;BME280_temperature;BME280_humidity;BME280_pressure;Samples;Min_cycle;Max_cycle;Signal;HPM_P1;HPM_P2
2022/05/04 00:01:57;;;;;;;13.60;9.30;;;;;;;-141.50;100.00;63355.56;5092842;28;20052;-80
2022/05/04 00:04:23;;;;;;;14.27;9.32;;;;;;;-141.50;100.00;63355.56;5094062;28;20043;-81
2022/05/04 00:06:50;;;;;;;12.55;9.50;;;;;;;-141.50;100.00;63355.56;5093630;28;20051;-81
2022/05/04 00:09:17;;;;;;;12.95;9.20;;;;;;;-141.50;100.00;63355.56;5094044;28;20067;-80
2022/05/04 00:11:44;;;;;;;15.65;10.18;;;;;;;-141.50;100.00;63355.56;5094591;28;20649;-81
2022/05/04 00:14:11;;;;;;;16.40;10.73;;;;;;;-141.50;100.00;63355.56;5092755;28;20127;-81
2022/05/04 00:16:38;;;;;;;18.88;11.95;;;;;;;-141.50;100.00;63355.56;5096703;28;20447;-79
2022/05/04 00:19:04;;;;;;;23.25;13.40;;;;;;;-141.50;100.00;63355.56;5108249;28;20052;-79
2022/05/04 00:21:31;;;;;;;20.02;12.82;;;;;;;-141.50;100.00;63355.56;5115588;28;20074;-80
2022/05/04 00:23:57;;;;;;;21.00;12.02;;;;;;;-141.50;100.00;63355.56;5115837;28;20066;-82
2022/05/04 00:26:33;;;;;;;20.20;13.10;;;;;;;-141.50;100.00;63355.56;5097869;28;20083;-81
2022/05/04 00:28:59;;;;;;;;;;;;;;;-141.50;100.00;63355.56;5094664;28;20048;-80
2022/05/04 00:31:26;;;;;;;24.58;13.05;;;;;;;-141.50;100.00;63355.56;5091486;28;19920;-81
2022/05/04 00:33:52;;;;;;;18.25;11.95;;;;;;;-141.50;100.00;63355.56;5093751;28;20051;-80
2022/05/04 00:36:37;;;;;;;17.23;12.20;;;;;;;-141.50;100.00;63355.56;5097227;28;20123;-80
2022/05/04 00:39:03;;;;;;;15.38;10.60;;;;;;;-141.50;100.00;63355.56;5074369;28;20113;-81
2022/05/04 00:41:30;;;;;;;15.65;10.18;;;;;;;-141.50;100.00;63355.56;5073471;28;20135;-82
2022/05/04 00:43:56;;;;;;;18.50;10.50;;;;;;;-141.50;100.00;63355.56;5072481;28;20048;-80
2022/05/04 00:46:23;;;;;;;16.45;10.25;;;;;;;-141.50;100.00;63355.56;5073094;28;20045;-80
2022/05/04 00:48:50;;;;;;;16.38;10.02;;;;;;;-141.50;100.00;63355.56;5072316;28;20048;-82
2022/05/04 00:51:17;;;;;;;15.90;10.60;;;;;;;-141.50;100.00;63355.56;5072407;28;20138;-79
2022/05/04 00:53:44;;;;;;;18.83;11.02;;;;;;;-141.50;100.00;63355.56;5073782;28;20072;-81
2022/05/04 00:56:11;;;;;;;16.52;10.20;;;;;;;-141.50;100.00;63355.56;5074765;28;20051;-82
2022/05/04 00:58:57;;;;;;;17.10;10.00;;;;;;;-141.50;100.00;63355.56;5073085;28;20097;-81
2022/05/04 01:01:38;;;;;;;18.67;11.23;;;;;;;-141.50;100.00;63355.56;5070196;28;20057;-81
2022/05/04 01:04:04;;;;;;;18.65;11.93;;;;;;;-141.50;100.00;63355.56;5070843;28;20451;-83
2022/05/04 01:06:53;;;;;;;18.00;11.02;;;;;;;-141.50;100.00;63355.56;5075112;28;20051;-82
2022/05/04 01:09:19;;;;;;;20.05;11.60;;;;;;;-141.50;100.00;63355.56;5073659;28;20048;-79
2022/05/04 01:11:46;;;;;;;19.33;12.55;;;;;;;-141.50;100.00;63355.56;5076812;28;20154;-80
2022/05/04 01:14:14;;;;;;;20.27;13.57;;;;;;;-141.50;100.00;63355.56;5091047;28;20048;-81
2022/05/04 01:16:42;;;;;;;20.58;13.02;;;;;;;-141.50;100.00;63355.56;5090310;28;20071;-80
2022/05/04 01:19:10;;;;;;;17.55;11.50;;;;;;;-141.50;100.00;63355.56;5091218;28;20043;-80
2022/05/04 01:21:37;;;;;;;16.90;11.35;;;;;;;-141.50;100.00;63355.56;5091394;28;20197;-80
2022/05/04 01:24:04;;;;;;;18.15;11.55;;;;;;;-141.50;100.00;63355.56;5089664;28;20052;-78
2022/05/04 01:26:33;;;;;;;16.08;11.20;;;;;;;-141.50;100.00;63355.56;5091633;28;20048;-79
2022/05/04 01:29:01;;;;;;;19.63;11.75;;;;;;;-141.50;100.00;63355.56;5090970;28;20048;-79
2022/05/04 01:31:28;;;;;;;15.73;10.80;;;;;;;-141.50;100.00;63355.56;5094523;28;20048;-80
2022/05/04 01:33:55;;;;;;;16.77;10.27;;;;;;;-141.50;100.00;63355.56;5095348;28;20051;-80
2022/05/04 01:36:24;;;;;;;17.98;9.68;;;;;;;-141.50;100.00;63355.56;5094395;28;20047;-80
2022/05/04 01:38:50;;;;;;;15.73;9.13;;;;;;;-141.50;100.00;63355.56;5092667;28;20052;-81
2022/05/04 01:44:04;;;;;;;16.45;10.27;;;;;;;-141.50;100.00;63355.56;5091431;28;20504;-81
2022/05/04 01:46:31;;;;;;;13.80;9.60;;;;;;;-141.50;100.00;63355.56;5091315;28;20076;-80
2022/05/04 01:49:19;;;;;;;17.90;10.38;;;;;;;-141.50;100.00;63355.56;5092206;28;20130;-80
2022/05/04 01:51:47;;;;;;;18.27;11.52;;;;;;;-141.50;100.00;63355.56;5092406;28;20060;-80
2022/05/04 01:54:14;;;;;;;15.93;10.75;;;;;;;-141.50;100.00;63355.56;5092132;28;20083;-80
2022/05/04 01:56:41;;;;;;;17.95;11.98;;;;;;;-141.50;100.00;63355.56;5093437;28;20044;-80
2022/05/04 01:59:15;;;;;;;22.45;13.43;;;;;;;-141.50;100.00;63355.56;5092522;28;20052;-80
2022/05/04 02:01:41;;;;;;;20.08;12.90;;;;;;;-141.50;100.00;63355.56;5092017;28;20089;-81
2022/05/04 02:04:09;;;;;;;18.70;12.25;;;;;;;-141.50;100.00;63355.56;5092729;28;20070;-80
2022/05/04 02:06:37;;;;;;;19.00;12.30;;;;;;;-141.50;100.00;63355.56;5092944;28;20091;-79
2022/05/04 02:09:06;;;;;;;18.45;11.70;;;;;;;-141.50;100.00;63355.56;5091437;28;20469;-81
2022/05/04 02:11:33;;;;;;;17.23;11.45;;;;;;;-141.50;100.00;63355.56;5092732;28;20087;-80
2022/05/04 02:14:00;;;;;;;20.08;10.38;;;;;;;-141.50;100.00;63355.56;5093091;28;20093;-82
2022/05/04 02:16:28;;;;;;;19.52;11.45;;;;;;;-141.50;100.00;63355.56;5093859;28;20048;-81
2022/05/04 02:18:55;;;;;;;18.98;12.35;;;;;;;-141.50;100.00;63355.56;5093381;28;20056;-82
2022/05/04 02:21:22;;;;;;;17.02;11.88;;;;;;;-141.50;100.00;63355.56;5090866;28;20072;-82
2022/05/04 02:23:49;;;;;;;21.27;11.73;;;;;;;-141.50;100.00;63355.56;5092659;28;20044;-81
2022/05/04 02:26:17;;;;;;;18.88;12.32;;;;;;;-141.50;100.00;63355.56;5092403;28;20462;-82
2022/05/04 02:28:44;;;;;;;15.75;11.13;;;;;;;-141.50;100.00;63355.56;5091763;28;20044;-82
2022/05/04 02:31:18;;;;;;;19.80;12.63;;;;;;;-141.50;100.00;63355.56;5094583;28;20553;-79
2022/05/04 02:33:47;;;;;;;19.33;12.52;;;;;;;-141.50;100.00;63355.56;5114184;28;20032;-80
2022/05/04 02:38:59;;;;;;;23.87;14.50;;;;;;;-141.50;100.00;63355.56;5093856;28;20087;-79
2022/05/04 02:41:26;;;;;;;20.70;14.02;;;;;;;-141.50;100.00;63355.56;5092267;28;20048;-81
2022/05/04 02:43:52;;;;;;;24.75;16.02;;;;;;;-141.50;100.00;63355.56;5092493;28;20086;-81
2022/05/04 02:46:20;;;;;;;23.58;14.68;;;;;;;-141.50;100.00;63355.56;5092468;28;20094;-81
2022/05/04 02:48:47;;;;;;;22.58;14.00;;;;;;;-141.50;100.00;63355.56;5092121;28;20075;-80
2022/05/04 02:51:16;;;;;;;23.00;13.88;;;;;;;-141.50;100.00;63355.56;5091284;28;20124;-81
2022/05/04 02:53:45;;;;;;;22.25;13.18;;;;;;;-141.50;100.00;63355.56;5090394;28;20113;-79
2022/05/04 02:56:15;;;;;;;19.13;12.60;;;;;;;-141.50;100.00;63355.56;5093609;28;20048;-80
2022/05/04 02:58:42;;;;;;;19.15;12.27;;;;;;;-141.50;100.00;63355.56;5094433;28;20097;-80
2022/05/04 03:04:02;;;;;;;20.83;14.68;;;;;;;-141.50;100.00;63355.56;5095395;28;20048;-82
2022/05/04 03:06:32;;;;;;;22.70;14.30;;;;;;;-141.50;100.00;63355.56;5096325;28;20051;-81
2022/05/04 03:09:07;;;;;;;22.13;14.63;;;;;;;-141.50;100.00;63355.56;5095784;28;20052;-80
2022/05/04 03:14:20;;;;;;;32.97;15.02;;;;;;;-141.50;100.00;63355.56;5095409;28;20071;-82
2022/05/04 03:16:47;;;;;;;24.95;14.68;;;;;;;-141.50;100.00;63355.56;5094221;28;20044;-80
2022/05/04 03:19:14;;;;;;;20.85;13.90;;;;;;;-141.50;100.00;63355.56;5096175;28;20612;-80
2022/05/04 03:21:41;;;;;;;21.50;14.63;;;;;;;-141.50;100.00;63355.56;5097973;28;20628;-80
2022/05/04 03:24:08;;;;;;;27.55;17.58;;;;;;;-141.50;100.00;63355.56;5094456;28;20446;-80
2022/05/04 03:26:36;;;;;;;30.38;18.85;;;;;;;-141.50;100.00;63355.56;5097003;28;20040;-81
2022/05/04 03:29:05;;;;;;;32.65;19.52;;;;;;;-141.50;100.00;63355.56;5094926;28;20056;-80
2022/05/04 03:31:38;;;;;;;31.83;19.98;;;;;;;-141.50;100.00;63355.56;5101038;28;20147;-78
2022/05/04 03:34:06;;;;;;;29.75;19.17;;;;;;;-141.50;100.00;63355.56;5095892;28;20052;-80
2022/05/04 03:36:36;;;;;;;31.25;19.92;;;;;;;-141.50;100.00;63355.56;5098106;28;20057;-81
2022/05/04 03:39:06;;;;;;;33.22;18.85;;;;;;;-141.50;100.00;63355.56;5099680;28;20047;-80
2022/05/04 03:41:52;;;;;;;36.13;21.92;;;;;;;-141.50;100.00;63355.56;5102580;28;20101;-79
2022/05/04 03:44:19;;;;;;;35.17;21.20;;;;;;;-141.50;100.00;63355.56;5105326;28;20054;-79
2022/05/04 03:46:55;;;;;;;34.30;21.40;;;;;;;-141.50;100.00;63355.56;5090324;28;20072;-79
2022/05/04 03:49:23;;;;;;;40.28;21.85;;;;;;;-141.50;100.00;63355.56;5117056;28;20087;-80
2022/05/04 03:51:52;;;;;;;31.98;20.02;;;;;;;-141.50;100.00;63355.56;5121407;28;20055;-80
2022/05/04 03:54:18;;;;;;;29.20;18.80;;;;;;;-141.50;100.00;63355.56;5117817;27;20612;-80
2022/05/04 03:56:47;;;;;;;29.95;19.30;;;;;;;-141.50;100.00;63355.56;5118863;28;20444;-81
2022/05/04 03:59:14;;;;;;;28.15;18.05;;;;;;;-141.50;100.00;63355.56;5118664;28;20092;-81
2022/05/04 04:01:40;;;;;;;29.25;17.88;;;;;;;-141.50;100.00;63355.56;5118289;28;20047;-81
2022/05/04 04:04:07;;;;;;;27.42;16.67;;;;;;;-141.50;100.00;63355.56;5117559;28;20075;-81
2022/05/04 04:06:43;;;;;;;25.77;15.85;;;;;;;-141.50;100.00;63355.56;5120862;28;20096;-80
2022/05/04 04:09:10;;;;;;;21.83;14.80;;;;;;;-141.50;100.00;63355.56;5117102;28;20082;-81
2022/05/04 04:11:37;;;;;;;27.63;15.15;;;;;;;-141.50;100.00;63355.56;5108345;28;20075;-80
2022/05/04 04:14:04;;;;;;;28.58;16.02;;;;;;;-141.50;100.00;63355.56;5100061;28;20075;-80
2022/05/04 04:16:30;;;;;;;26.30;15.57;;;;;;;-141.50;100.00;63355.56;5101107;28;20044;-80
2022/05/04 04:18:59;;;;;;;24.55;15.05;;;;;;;-141.50;100.00;63355.56;5105477;28;20089;-79
2022/05/04 04:24:16;;;;;;;22.67;14.93;;;;;;;-141.50;100.00;63355.56;5106171;28;20052;-81
2022/05/04 04:26:45;;;;;;;26.05;15.57;;;;;;;-141.50;100.00;63355.56;5099261;28;20048;-78
2022/05/04 04:29:11;;;;;;;24.88;15.82;;;;;;;-141.50;100.00;63355.56;5092555;28;20071;-79
2022/05/04 04:31:52;;;;;;;26.20;15.70;;;;;;;-141.50;100.00;63355.56;5092077;28;20067;-81
2022/05/04 04:34:18;;;;;;;26.48;16.08;;;;;;;-141.50;100.00;63355.56;5094274;28;20052;-81
2022/05/04 04:36:45;;;;;;;26.38;15.25;;;;;;;-141.50;100.00;63355.56;5095495;28;20044;-81
2022/05/04 04:39:11;;;;;;;26.60;15.10;;;;;;;-141.50;100.00;63355.56;5099263;28;20109;-80
2022/05/04 04:41:38;;;;;;;22.23;15.15;;;;;;;-141.50;100.00;63355.56;5115067;28;20052;-81
2022/05/04 04:44:04;;;;;;;26.90;15.48;;;;;;;-141.50;100.00;63355.56;5113451;28;20051;-81
2022/05/04 04:46:31;;;;;;;22.42;14.27;;;;;;;-141.50;100.00;63355.56;5116502;28;20043;-80
2022/05/04 04:49:00;;;;;;;23.50;14.48;;;;;;;-141.50;100.00;63355.56;5115658;27;20209;-81
2022/05/04 04:51:27;;;;;;;27.95;15.23;;;;;;;-141.50;100.00;63355.56;5116226;28;20093;-81
2022/05/04 04:53:54;;;;;;;23.85;14.63;;;;;;;-141.50;100.00;63355.56;5115740;28;20067;-81
2022/05/04 04:56:23;;;;;;;32.10;14.57;;;;;;;-141.50;100.00;63355.56;5114978;28;20043;-81
2022/05/04 04:58:50;;;;;;;32.55;15.93;;;;;;;-141.50;100.00;63355.56;5116091;28;20124;-80
2022/05/04 05:01:16;;;;;;;27.13;15.07;;;;;;;-141.50;100.00;63355.56;5116388;28;20392;-82
2022/05/04 05:03:43;;;;;;;22.80;15.10;;;;;;;-141.50;100.00;63355.56;5114633;28;20107;-80
2022/05/04 05:06:13;;;;;;;22.90;14.40;;;;;;;-141.50;100.00;63355.56;5117284;28;20039;-81
2022/05/04 05:08:42;;;;;;;24.70;14.93;;;;;;;-141.50;100.00;63355.56;5114860;28;20107;-79
2022/05/04 05:11:09;;;;;;;20.63;13.77;;;;;;;-141.50;100.00;63355.56;5105183;28;20112;-80
2022/05/04 05:16:06;;;;;;;33.63;15.18;;;;;;;-141.50;100.00;63355.56;5095611;28;20169;-79
2022/05/04 05:16:23;;;;;;;28.23;15.23;;;;;;;-141.50;100.00;63355.56;5095453;28;20040;-79
2022/05/04 05:18:54;;;;;;;29.55;16.27;;;;;;;-141.50;100.00;63355.56;5095106;28;20070;-81
2022/05/04 05:21:20;;;;;;;28.20;16.08;;;;;;;-141.50;100.00;63355.56;5095385;28;20052;-81
2022/05/04 05:23:47;;;;;;;26.20;16.58;;;;;;;-141.50;100.00;63355.56;5095771;28;20051;-79
2022/05/04 05:26:13;;;;;;;25.40;16.95;;;;;;;-141.50;100.00;63355.56;5095631;28;20048;-81
2022/05/04 05:28:40;;;;;;;27.15;17.42;;;;;;;-141.50;100.00;63355.56;5094786;28;20051;-79
2022/05/04 05:31:09;;;;;;;28.90;17.27;;;;;;;-141.50;100.00;63355.56;5095657;28;20047;-80
2022/05/04 05:33:35;;;;;;;27.38;16.48;;;;;;;-141.50;100.00;63355.56;5096375;28;20427;-78
2022/05/04 05:36:02;;;;;;;28.58;16.40;;;;;;;-141.50;100.00;63355.56;5109483;28;20238;-79
2022/05/04 05:38:28;;;;;;;27.95;16.95;;;;;;;-141.50;100.00;63355.56;5111055;28;20059;-79
2022/05/04 05:40:55;;;;;;;26.92;16.13;;;;;;;-141.50;100.00;63355.56;5113120;28;20074;-79
2022/05/04 05:43:24;;;;;;;29.35;16.25;;;;;;;-141.50;100.00;63355.56;5109260;28;20105;-79
2022/05/04 05:45:51;;;;;;;31.85;16.27;;;;;;;-141.50;100.00;63355.56;5094189;28;20127;-80
2022/05/04 05:48:20;;;;;;;25.90;15.07;;;;;;;-141.50;100.00;63355.56;5096517;28;20060;-79
2022/05/04 05:50:47;;;;;;;29.02;16.00;;;;;;;-141.50;100.00;63355.56;5096026;28;20059;-79
2022/05/04 05:53:14;;;;;;;25.30;15.45;;;;;;;-141.50;100.00;63355.56;5097993;28;20044;-79
2022/05/04 05:55:52;;;;;;;30.52;15.82;;;;;;;-141.50;100.00;63355.56;5109155;28;20538;-79
2022/05/04 05:58:19;;;;;;;28.77;16.33;;;;;;;-141.50;100.00;63355.56;5092381;28;20052;-80
2022/05/04 06:00:50;;;;;;;25.58;15.48;;;;;;;-141.50;100.00;63355.56;5098756;28;20107;-79
2022/05/04 06:03:24;;;;;;;27.30;16.70;;;;;;;-141.50;100.00;63355.56;5114362;28;20048;-79
2022/05/04 06:05:50;;;;;;;26.48;16.50;;;;;;;-141.50;100.00;63355.56;5114370;28;20048;-78
2022/05/04 06:08:17;;;;;;;27.92;16.73;;;;;;;-141.50;100.00;63355.56;5103527;28;20052;-81
2022/05/04 06:10:44;;;;;;;24.13;16.38;;;;;;;-141.50;100.00;63355.56;5096071;28;20101;-80
2022/05/04 06:13:19;;;;;;;27.42;16.10;;;;;;;-141.50;100.00;63355.56;5100406;28;20070;-80
2022/05/04 06:15:45;;;;;;;27.20;17.02;;;;;;;-141.50;100.00;63355.56;5096929;28;20056;-79
2022/05/04 06:18:15;;;;;;;27.70;16.70;;;;;;;-141.50;100.00;63355.56;5100724;28;20052;-82
2022/05/04 06:20:42;;;;;;;31.25;17.60;;;;;;;-141.50;100.00;63355.56;5099710;28;20489;-81
2022/05/04 06:23:10;;;;;;;28.38;16.15;;;;;;;-141.50;100.00;63355.56;5094472;28;20075;-80
2022/05/04 06:25:41;;;;;;;27.90;16.63;;;;;;;-141.50;100.00;63355.56;5098754;28;20048;-80
2022/05/04 06:28:08;;;;;;;23.45;15.95;;;;;;;-141.50;100.00;63355.56;5100728;28;20051;-81
2022/05/04 06:36:05;;;;;;;28.85;16.05;;;;;;;-141.50;100.00;63355.56;5100148;28;20044;-80
2022/05/04 06:38:32;;;;;;;22.08;14.90;;;;;;;-141.50;100.00;63355.56;5096375;28;20048;-79
2022/05/04 06:41:00;;;;;;;23.95;15.43;;;;;;;-141.50;100.00;63355.56;5095977;28;20094;-80
2022/05/04 06:43:29;;;;;;;20.55;14.73;;;;;;;-141.50;100.00;63355.56;5095219;28;20052;-80
2022/05/04 06:45:57;;;;;;;32.08;15.43;;;;;;;-141.50;100.00;63355.56;5095465;28;20051;-79
2022/05/04 06:48:24;;;;;;;24.20;14.98;;;;;;;-141.50;100.00;63355.56;5097382;28;20071;-80
2022/05/04 06:50:51;;;;;;;25.05;15.07;;;;;;;-141.50;100.00;63355.56;5096566;28;20075;-81
2022/05/04 06:53:18;;;;;;;24.25;15.00;;;;;;;-141.50;100.00;63355.56;5096074;28;20052;-80
2022/05/04 06:55:50;;;;;;;24.80;13.82;;;;;;;-141.50;100.00;63355.56;5097598;28;20055;-80
2022/05/04 06:58:16;;;;;;;22.52;13.93;;;;;;;-141.50;100.00;63355.56;5096521;28;20079;-81
2022/05/04 07:00:46;;;;;;;25.35;13.95;;;;;;;-141.50;100.00;63355.56;5096810;28;20063;-79
2022/05/04 07:03:13;;;;;;;26.10;14.23;;;;;;;-141.50;100.00;63355.56;5097468;28;20098;-80
2022/05/04 07:05:40;;;;;;;20.33;13.55;;;;;;;-141.50;100.00;63355.56;5096044;28;20056;-80
2022/05/04 07:08:07;;;;;;;23.48;13.70;;;;;;;-141.50;100.00;63355.56;5100670;28;20090;-79
2022/05/04 07:10:34;;;;;;;23.15;15.20;;;;;;;-141.50;100.00;63355.56;5097572;28;20052;-81
2022/05/04 07:13:13;;;;;;;23.85;13.88;;;;;;;-141.50;100.00;63355.56;5097539;28;20040;-80
2022/05/04 07:15:40;;;;;;;22.10;13.27;;;;;;;-141.50;100.00;63355.56;5094347;28;20052;-80
2022/05/04 07:18:09;;;;;;;21.08;12.65;;;;;;;-141.50;100.00;63355.56;5100488;28;20075;-80
2022/05/04 07:20:40;;;;;;;29.25;13.18;;;;;;;-141.50;100.00;63355.56;5100380;28;20052;-80
2022/05/04 07:23:07;;;;;;;18.48;12.20;;;;;;;-141.50;100.00;63355.56;5100737;28;20052;-81
2022/05/04 07:25:33;;;;;;;15.70;10.25;;;;;;;-141.50;100.00;63355.56;5080736;28;20056;-80
2022/05/04 07:28:02;;;;;;;23.60;11.50;;;;;;;-141.50;100.00;63355.56;5079521;28;20041;-81
2022/05/04 07:30:29;;;;;;;20.95;12.40;;;;;;;-141.50;100.00;63355.56;5078053;28;20055;-80
2022/05/04 07:32:56;;;;;;;21.73;10.95;;;;;;;-141.50;100.00;63355.56;5077838;28;20044;-81
2022/05/04 07:35:22;;;;;;;20.92;11.57;;;;;;;-141.50;100.00;63355.56;5079473;28;20501;-80
2022/05/04 07:37:49;;;;;;;20.50;10.73;;;;;;;-141.50;100.00;63355.56;5078132;28;20132;-80
2022/05/04 07:43:03;;;;;;;17.95;10.07;;;;;;;-141.50;100.00;63355.56;5076856;28;20094;-80
2022/05/04 07:45:30;;;;;;;17.60;9.50;;;;;;;-141.50;100.00;63355.56;5076749;28;20052;-81
2022/05/04 07:47:57;;;;;;;15.88;9.15;;;;;;;-141.50;100.00;63355.56;5077052;28;20127;-79
2022/05/04 07:50:33;;;;;;;17.65;9.43;;;;;;;-141.50;100.00;63355.56;5077165;28;20056;-79
2022/05/04 07:53:08;;;;;;;;;;;;;;;-141.50;100.00;63355.56;5077053;28;20052;-81
2022/05/04 07:55:36;;;;;;;17.35;8.00;;;;;;;-141.50;100.00;63355.56;5077063;28;19982;-81
2022/05/04 07:58:05;;;;;;;12.18;8.48;;;;;;;-141.50;100.00;63355.56;5076216;28;20048;-80
2022/05/04 08:06:20;;;;;;;12.65;7.40;;;;;;;-141.50;100.00;63355.56;5076210;28;20106;-81
2022/05/04 08:08:46;;;;;;;13.90;7.50;;;;;;;-141.50;100.00;63355.56;5076298;28;20122;-81
2022/05/04 08:11:13;;;;;;;11.45;7.40;;;;;;;-141.50;100.00;63355.56;5082891;28;20094;-81
2022/05/04 08:13:39;;;;;;;12.00;7.63;;;;;;;-141.50;100.00;63355.56;5094780;28;20073;-81
2022/05/04 08:16:07;;;;;;;11.57;7.18;;;;;;;-141.50;100.00;63355.56;5093482;28;20213;-79
2022/05/04 08:18:39;;;;;;;12.85;6.95;;;;;;;-141.50;100.00;63355.56;5095018;28;20079;-81
2022/05/04 08:21:05;;;;;;;14.02;6.85;;;;;;;-141.50;100.00;63355.56;5094092;28;20070;-80
2022/05/04 08:23:32;;;;;;;10.00;6.75;;;;;;;-141.50;100.00;63355.56;5095976;28;20048;-81
2022/05/04 08:25:58;;;;;;;15.93;7.30;;;;;;;-141.50;100.00;63355.56;5095818;28;20055;-80
2022/05/04 08:28:25;;;;;;;15.35;7.53;;;;;;;-141.50;100.00;63355.56;5095747;28;20056;-80
2022/05/04 08:30:54;;;;;;;16.10;7.32;;;;;;;-141.50;100.00;63355.56;5096206;28;20062;-80
2022/05/04 08:33:31;;;;;;;12.57;7.07;;;;;;;-141.50;100.00;63355.56;5096144;28;20048;-80
2022/05/04 08:35:58;;;;;;;13.40;6.50;;;;;;;-141.50;100.00;63355.56;5095678;28;20479;-80
2022/05/04 08:38:24;;;;;;;11.73;6.15;;;;;;;-141.50;100.00;63355.56;5095000;28;20070;-80
2022/05/04 08:40:55;;;;;;;12.93;6.20;;;;;;;-141.50;100.00;63355.56;5096252;28;20075;-80
2022/05/04 08:43:24;;;;;;;19.55;6.30;;;;;;;-141.50;100.00;63355.56;5096875;28;20108;-81
2022/05/04 08:46:15;;;;;;;11.60;6.65;;;;;;;-141.50;100.00;63355.56;5095819;28;20511;-81
2022/05/04 08:48:45;;;;;;;10.00;5.75;;;;;;;-141.50;100.00;63355.56;5088362;28;20048;-80
2022/05/04 08:51:12;;;;;;;15.23;6.72;;;;;;;-141.50;100.00;63355.56;5073956;28;20413;-80
2022/05/04 08:53:42;;;;;;;10.60;6.20;;;;;;;-141.50;100.00;63355.56;5073937;28;20457;-79
2022/05/04 08:56:09;;;;;;;15.13;6.18;;;;;;;-141.50;100.00;63355.56;5074300;28;20098;-80
2022/05/04 08:58:39;;;;;;;14.32;6.30;;;;;;;-141.50;100.00;63355.56;5074183;28;20052;-80
2022/05/04 09:01:05;;;;;;;12.68;6.38;;;;;;;-141.50;100.00;63355.56;5075088;28;20123;-80
2022/05/04 09:03:56;;;;;;;10.68;6.68;;;;;;;-141.50;100.00;63355.56;5073868;28;20075;-80
2022/05/04 09:06:28;;;;;;;13.90;6.45;;;;;;;-141.50;100.00;63355.56;5074045;28;20106;-80
2022/05/04 09:09:08;;;;;;;9.35;6.35;;;;;;;-141.50;100.00;63355.56;5072370;28;20476;-81
2022/05/04 09:11:42;;;;;;;12.30;7.10;;;;;;;-141.50;100.00;63355.56;5085823;28;20143;-80
2022/05/04 09:14:12;;;;;;;11.73;6.50;;;;;;;-141.50;100.00;63355.56;5094900;28;20135;-80
2022/05/04 09:16:40;;;;;;;12.00;7.47;;;;;;;-141.50;100.00;63355.56;5095526;28;20044;-82
2022/05/04 09:19:21;;;;;;;12.50;6.97;;;;;;;-141.50;100.00;63355.56;5093401;28;20059;-80
2022/05/04 09:21:47;;;;;;;12.15;6.90;;;;;;;-141.50;100.00;63355.56;5094114;28;20052;-78
2022/05/04 09:24:15;;;;;;;12.88;6.78;;;;;;;-141.50;100.00;63355.56;5097882;28;20047;-77
2022/05/04 09:26:44;;;;;;;14.27;7.10;;;;;;;-141.50;100.00;63355.56;5101765;28;20063;-78
2022/05/04 09:29:18;;;;;;;19.13;7.03;;;;;;;-141.50;100.00;63355.56;5104447;28;20063;-82
2022/05/04 09:31:47;;;;;;;13.82;7.10;;;;;;;-141.50;100.00;63355.56;5113236;28;20040;-80
2022/05/04 09:34:14;;;;;;;13.43;6.68;;;;;;;-141.50;100.00;63355.56;5114045;28;20047;-81
2022/05/04 09:45:11;;;;;;;16.42;7.78;;;;;;;-141.50;100.00;63355.56;5095153;28;20055;-81
2022/05/04 09:47:44;;;;;;;14.35;8.45;;;;;;;-141.50;100.00;63355.56;5098183;28;20437;-81
2022/05/04 09:50:13;;;;;;;14.23;7.50;;;;;;;-141.50;100.00;63355.56;5098098;28;20077;-80
2022/05/04 09:52:48;;;;;;;11.50;7.68;;;;;;;-141.50;100.00;63355.56;5083222;28;20052;-79
2022/05/04 09:55:29;;;;;;;11.60;7.65;;;;;;;-141.50;100.00;63355.56;5098270;28;20079;-80
2022/05/04 09:57:56;;;;;;;16.10;8.07;;;;;;;-141.50;100.00;63355.56;5098567;28;20313;-80
2022/05/04 10:00:35;;;;;;;18.70;9.75;;;;;;;-141.50;100.00;63355.56;5099549;28;20080;-78
2022/05/04 10:03:02;;;;;;;17.35;10.40;;;;;;;-141.50;100.00;63355.56;5093528;28;20087;-80
2022/05/04 10:05:29;;;;;;;15.77;10.10;;;;;;;-141.50;100.00;63355.56;5092786;28;20048;-80
2022/05/04 10:07:56;;;;;;;15.20;11.30;;;;;;;-141.50;100.00;63355.56;5092843;28;20052;-79
2022/05/04 10:10:25;;;;;;;18.88;10.25;;;;;;;-141.50;100.00;63355.56;5092643;28;20141;-81
2022/05/04 10:12:52;;;;;;;15.20;10.65;;;;;;;-141.50;100.00;63355.56;5093113;28;20060;-81
2022/05/04 10:15:19;;;;;;;15.43;11.07;;;;;;;-141.50;100.00;63355.56;5092827;28;20871;-79
2022/05/04 10:18:31;;;;;;;21.40;11.30;;;;;;;-141.50;100.00;63355.56;5093661;28;20158;-81
2022/05/04 10:21:11;;;;;;;19.55;11.60;;;;;;;-141.50;100.00;63355.56;5090569;28;20484;-82
2022/05/04 10:23:43;;;;;;;15.45;11.18;;;;;;;-141.50;100.00;63355.56;5090440;28;20134;-81
2022/05/04 10:26:12;;;;;;;22.33;10.63;;;;;;;-141.50;100.00;63355.56;5093023;28;20052;-80
2022/05/04 10:30:30;;;;;;;20.27;10.77;;;;;;;-141.50;100.00;63355.56;5093473;28;20048;-82
2022/05/04 10:31:34;;;;;;;16.73;10.55;;;;;;;-141.50;100.00;63355.56;5093843;28;20074;-81
2022/05/04 10:34:18;;;;;;;17.50;10.52;;;;;;;-141.50;100.00;63355.56;5094848;28;20052;-81
2022/05/04 10:36:47;;;;;;;20.48;10.65;;;;;;;-141.50;100.00;63355.56;5094941;28;20055;-82
2022/05/04 10:39:24;;;;;;;16.00;10.20;;;;;;;-141.50;100.00;63355.56;5094142;28;20044;-82
2022/05/04 10:41:51;;;;;;;13.65;10.07;;;;;;;-141.50;100.00;63355.56;5093979;28;20123;-81
2022/05/04 10:44:17;;;;;;;17.30;10.52;;;;;;;-141.50;100.00;63355.56;5094205;28;20052;-82
2022/05/04 10:46:49;;;;;;;17.95;9.75;;;;;;;-141.50;100.00;63355.56;5101809;28;20040;-80
2022/05/04 10:49:39;;;;;;;14.50;9.55;;;;;;;-141.50;100.00;63355.56;5114386;28;20036;-80
2022/05/04 10:52:19;;;;;;;14.98;9.38;;;;;;;-141.50;100.00;63355.56;5116619;28;20036;-78
2022/05/04 10:54:49;;;;;;;17.48;9.52;;;;;;;-141.50;100.00;63355.56;5110140;28;20056;-80
2022/05/04 10:57:16;;;;;;;12.98;9.77;;;;;;;-141.50;100.00;63355.56;5096940;28;20109;-82
2022/05/04 10:59:48;;;;;;;13.23;10.05;;;;;;;-141.50;100.00;63355.56;5097559;28;20409;-81
2022/05/04 11:02:17;;;;;;;15.85;9.88;;;;;;;-141.50;100.00;63355.56;5096008;28;20488;-82
2022/05/04 11:04:52;;;;;;;18.85;9.73;;;;;;;-141.50;100.00;63355.56;5097201;28;20059;-79
2022/05/04 11:07:30;;;;;;;11.43;9.07;;;;;;;-141.50;100.00;63355.56;5095371;28;20116;-81
2022/05/04 11:10:08;;;;;;;13.18;8.50;;;;;;;-141.50;100.00;63355.56;5094132;28;20077;-81
2022/05/04 11:12:35;;;;;;;13.32;8.73;;;;;;;-141.50;100.00;63355.56;5093106;28;20078;-81
2022/05/04 11:15:02;;;;;;;23.80;9.52;;;;;;;-141.50;100.00;63355.56;5094005;28;20048;-79
2022/05/04 11:17:32;;;;;;;17.00;8.88;;;;;;;-141.50;100.00;63355.56;5103069;28;20048;-81
2022/05/04 11:20:13;;;;;;;16.13;8.90;;;;;;;-141.50;100.00;63355.56;5100016;28;20468;-80
2022/05/04 11:22:40;;;;;;;10.75;8.55;;;;;;;-141.50;100.00;63355.56;5096168;28;20056;-80
2022/05/04 11:25:23;;;;;;;13.60;8.20;;;;;;;-141.50;100.00;63355.56;5096748;28;20094;-80
2022/05/04 11:28:02;;;;;;;14.85;8.93;;;;;;;-141.50;100.00;63355.56;5095836;28;20121;-80
2022/05/04 11:30:33;;;;;;;13.70;8.77;;;;;;;-141.50;100.00;63355.56;5095952;28;20507;-81
2022/05/04 11:33:06;;;;;;;11.43;7.72;;;;;;;-141.50;100.00;63355.56;5097100;28;20526;-80
2022/05/04 11:35:33;;;;;;;13.13;7.80;;;;;;;-141.50;100.00;63355.56;5095609;28;20235;-81
2022/05/04 11:37:59;;;;;;;13.88;7.13;;;;;;;-141.50;100.00;63355.56;5095313;28;20066;-81
2022/05/04 11:40:26;;;;;;;15.23;7.55;;;;;;;-141.50;100.00;63355.56;5096343;28;20408;-81
2022/05/04 11:42:52;;;;;;;10.68;7.95;;;;;;;-141.50;100.00;63355.56;5095197;28;20090;-82
2022/05/04 11:45:20;;;;;;;10.98;6.88;;;;;;;-141.50;100.00;63355.56;5094614;28;20098;-80